sensor_id;sensor_type;location;lat;lon;timestamp;temperature;humidity
12452;DHT22;6291;48.924;12.204;2022-12-18T00:04:57;-3.70;1.00
12452;DHT22;6291;48.924;12.204;2022-12-18T00:10:00;-3.80;1.00
12452;DHT22;6291;48.924;12.204;2022-12-18T00:15:06;-3.80;1.00
12452;DHT22;6291;48.924;12.204;2022-12-18T00:20:10;-3.90;5.50
12452;DHT22;6291;48.924;12.204;2022-12-18T00:25:14;-3.90;1.00
12452;DHT22;6291;48.924;12.204;2022-12-18T00:30:18;-3.90;1.00
12452;DHT22;6291;48.924;12.204;2022-12-18T00:35:22;-3.60;65.30
12452;DHT22;6291;48.924;12.204;2022-12-18T00:40:27;-3.70;99.90
12452;DHT22;6291;48.924;12.204;2022-12-18T00:45:31;-3.80;90.80
12452;DHT22;6291;48.924;12.204;2022-12-18T00:50:35;-3.90;75.70
12452;DHT22;6291;48.924;12.204;2022-12-18T00:55:39;-3.60;99.90
12452;DHT22;6291;48.924;12.204;2022-12-18T01:00:44;-3.80;99.90
12452;DHT22;6291;48.924;12.204;2022-12-18T01:05:48;-3.80;99.90
12452;DHT22;6291;48.924;12.204;2022-12-18T01:10:53;-3.90;1.00
12452;DHT22;6291;48.924;12.204;2022-12-18T01:15:57;-3.60;1.00
12452;DHT22;6291;48.924;12.204;2022-12-18T01:21:06;-3.80;99.90
12452;DHT22;6291;48.924;12.204;2022-12-18T01:26:13;-3.70;1.00
12452;DHT22;6291;48.924;12.204;2022-12-18T01:31:20;-3.80;1.00
12452;DHT22;6291;48.924;12.204;2022-12-18T01:36:26;-3.60;1.00
12452;DHT22;6291;48.924;12.204;2022-12-18T01:41:31;-3.80;1.00
12452;DHT22;6291;48.924;12.204;2022-12-18T01:46:56;-3.50;99.90
12452;DHT22;6291;48.924;12.204;2022-12-18T01:51:59;-3.90;1.00
12452;DHT22;6291;48.924;12.204;2022-12-18T01:57:03;-3.80;99.90
12452;DHT22;6291;48.924;12.204;2022-12-18T02:02:08;-3.80;1.00
12452;DHT22;6291;48.924;12.204;2022-12-18T02:07:19;-3.80;34.40
12452;DHT22;6291;48.924;12.204;2022-12-18T02:12:31;-3.80;99.90
12452;DHT22;6291;48.924;12.204;2022-12-18T02:17:42;-3.40;99.90
12452;DHT22;6291;48.924;12.204;2022-12-18T02:23:03;-3.70;99.90
12452;DHT22;6291;48.924;12.204;2022-12-18T02:28:11;-3.70;1.00
12452;DHT22;6291;48.924;12.204;2022-12-18T02:33:16;-3.80;99.90
12452;DHT22;6291;48.924;12.204;2022-12-18T02:38:19;-3.70;1.00
12452;DHT22;6291;48.924;12.204;2022-12-18T02:43:27;-3.50;1.00
12452;DHT22;6291;48.924;12.204;2022-12-18T02:48:34;-3.70;1.00
12452;DHT22;6291;48.924;12.204;2022-12-18T02:53:43;-3.70;1.00
12452;DHT22;6291;48.924;12.204;2022-12-18T02:58:57;-3.70;99.90
12452;DHT22;6291;48.924;12.204;2022-12-18T03:04:22;-3.70;1.00
12452;DHT22;6291;48.924;12.204;2022-12-18T03:09:31;-3.60;1.00
12452;DHT22;6291;48.924;12.204;2022-12-18T03:14:38;-3.50;19.10
12452;DHT22;6291;48.924;12.204;2022-12-18T03:19:46;-3.50;1.00
12452;DHT22;6291;48.924;12.204;2022-12-18T03:24:51;-3.40;86.60
12452;DHT22;6291;48.924;12.204;2022-12-18T03:30:01;-3.50;99.90
12452;DHT22;6291;48.924;12.204;2022-12-18T03:35:14;-3.60;99.90
12452;DHT22;6291;48.924;12.204;2022-12-18T03:40:21;-3.50;99.90
12452;DHT22;6291;48.924;12.204;2022-12-18T03:45:34;-3.40;99.90
12452;DHT22;6291;48.924;12.204;2022-12-18T03:50:45;-3.30;1.00
12452;DHT22;6291;48.924;12.204;2022-12-18T03:55:52;-3.30;99.90
12452;DHT22;6291;48.924;12.204;2022-12-18T04:01:02;-3.30;1.00
12452;DHT22;6291;48.924;12.204;2022-12-18T04:06:07;-3.30;99.90
12452;DHT22;6291;48.924;12.204;2022-12-18T04:11:13;-3.30;99.90
12452;DHT22;6291;48.924;12.204;2022-12-18T04:16:19;-3.30;1.00
12452;DHT22;6291;48.924;12.204;2022-12-18T04:21:26;0.70;1.00
12452;DHT22;6291;48.924;12.204;2022-12-18T04:26:30;-3.30;1.00
12452;DHT22;6291;48.924;12.204;2022-12-18T04:31:48;-3.40;99.90
12452;DHT22;6291;48.924;12.204;2022-12-18T04:36:51;-3.40;1.00
12452;DHT22;6291;48.924;12.204;2022-12-18T04:41:57;-3.50;1.00
12452;DHT22;6291;48.924;12.204;2022-12-18T04:47:04;-3.50;5.90
12452;DHT22;6291;48.924;12.204;2022-12-18T04:52:08;-3.50;1.00
12452;DHT22;6291;48.924;12.204;2022-12-18T04:57:11;-3.40;99.90
12452;DHT22;6291;48.924;12.204;2022-12-18T05:02:16;-3.40;96.90
12452;DHT22;6291;48.924;12.204;2022-12-18T05:07:19;-3.50;1.00
12452;DHT22;6291;48.924;12.204;2022-12-18T05:12:23;-3.50;18.00
12452;DHT22;6291;48.924;12.204;2022-12-18T05:17:27;-3.50;99.90
12452;DHT22;6291;48.924;12.204;2022-12-18T05:22:31;-3.50;99.90
12452;DHT22;6291;48.924;12.204;2022-12-18T05:27:34;-3.60;1.00
12452;DHT22;6291;48.924;12.204;2022-12-18T05:32:39;-3.70;1.00
12452;DHT22;6291;48.924;12.204;2022-12-18T05:37:43;-3.70;1.00
12452;DHT22;6291;48.924;12.204;2022-12-18T05:42:46;-3.70;99.90
12452;DHT22;6291;48.924;12.204;2022-12-18T05:47:51;-3.80;1.00
12452;DHT22;6291;48.924;12.204;2022-12-18T05:52:54;-3.80;46.90
12452;DHT22;6291;48.924;12.204;2022-12-18T05:57:58;-3.80;1.00
12452;DHT22;6291;48.924;12.204;2022-12-18T06:03:02;-3.70;99.90
12452;DHT22;6291;48.924;12.204;2022-12-18T06:08:06;-3.70;1.00
12452;DHT22;6291;48.924;12.204;2022-12-18T06:13:10;-3.70;99.90
12452;DHT22;6291;48.924;12.204;2022-12-18T06:18:14;-3.70;1.00
12452;DHT22;6291;48.924;12.204;2022-12-18T06:23:18;-3.70;99.90
12452;DHT22;6291;48.924;12.204;2022-12-18T06:28:21;-3.80;1.00
12452;DHT22;6291;48.924;12.204;2022-12-18T06:33:27;-3.80;1.00
12452;DHT22;6291;48.924;12.204;2022-12-18T06:38:31;-3.90;99.90
12452;DHT22;6291;48.924;12.204;2022-12-18T06:43:35;-3.80;1.00
12452;DHT22;6291;48.924;12.204;2022-12-18T06:48:40;-3.80;99.90
12452;DHT22;6291;48.924;12.204;2022-12-18T06:53:43;-3.80;99.90
12452;DHT22;6291;48.924;12.204;2022-12-18T06:58:47;-3.80;99.90
12452;DHT22;6291;48.924;12.204;2022-12-18T07:03:54;-3.20;99.90
12452;DHT22;6291;48.924;12.204;2022-12-18T07:08:57;-3.80;99.90
12452;DHT22;6291;48.924;12.204;2022-12-18T07:14:01;-2.60;1.00
12452;DHT22;6291;48.924;12.204;2022-12-18T07:19:05;-3.80;1.00
12452;DHT22;6291;48.924;12.204;2022-12-18T07:24:09;-3.20;1.00
12452;DHT22;6291;48.924;12.204;2022-12-18T07:29:12;-3.50;1.00
12452;DHT22;6291;48.924;12.204;2022-12-18T07:34:17;-4.00;13.00
12452;DHT22;6291;48.924;12.204;2022-12-18T07:39:21;-3.90;1.00
12452;DHT22;6291;48.924;12.204;2022-12-18T07:44:24;-3.80;1.00
12452;DHT22;6291;48.924;12.204;2022-12-18T07:49:29;-3.90;99.90
12452;DHT22;6291;48.924;12.204;2022-12-18T07:54:32;-3.90;99.90
12452;DHT22;6291;48.924;12.204;2022-12-18T07:59:35;-3.90;1.00
12452;DHT22;6291;48.924;12.204;2022-12-18T08:04:40;-3.90;1.00
12452;DHT22;6291;48.924;12.204;2022-12-18T08:09:43;-3.40;1.00
12452;DHT22;6291;48.924;12.204;2022-12-18T08:14:47;-3.80;1.00
12452;DHT22;6291;48.924;12.204;2022-12-18T08:19:51;-3.70;1.00
12452;DHT22;6291;48.924;12.204;2022-12-18T08:24:55;-3.60;1.00
12452;DHT22;6291;48.924;12.204;2022-12-18T08:29:58;-3.50;1.00
12452;DHT22;6291;48.924;12.204;2022-12-18T08:35:04;-3.40;1.00
12452;DHT22;6291;48.924;12.204;2022-12-18T08:40:08;-3.40;99.90
12452;DHT22;6291;48.924;12.204;2022-12-18T08:45:12;-3.40;99.90
12452;DHT22;6291;48.924;12.204;2022-12-18T08:50:17;-3.40;54.20
12452;DHT22;6291;48.924;12.204;2022-12-18T08:55:20;-3.40;1.00
12452;DHT22;6291;48.924;12.204;2022-12-18T09:00:23;-3.50;1.00
12452;DHT22;6291;48.924;12.204;2022-12-18T09:05:28;-3.20;1.00
12452;DHT22;6291;48.924;12.204;2022-12-18T09:10:33;-1.10;1.00
12452;DHT22;6291;48.924;12.204;2022-12-18T09:20:50;-2.70;1.00
12452;DHT22;6291;48.924;12.204;2022-12-18T09:25:58;-2.80;1.00
12452;DHT22;6291;48.924;12.204;2022-12-18T09:31:05;-3.40;1.00
12452;DHT22;6291;48.924;12.204;2022-12-18T09:36:13;-3.30;1.00
12452;DHT22;6291;48.924;12.204;2022-12-18T09:41:27;-3.40;1.00
12452;DHT22;6291;48.924;12.204;2022-12-18T09:46:37;-3.40;1.00
12452;DHT22;6291;48.924;12.204;2022-12-18T09:51:46;-3.00;99.90
12452;DHT22;6291;48.924;12.204;2022-12-18T09:56:50;-3.10;99.90
12452;DHT22;6291;48.924;12.204;2022-12-18T10:01:54;1.10;99.90
12452;DHT22;6291;48.924;12.204;2022-12-18T10:07:05;-2.90;99.90
12452;DHT22;6291;48.924;12.204;2022-12-18T10:12:19;-2.70;99.90
12452;DHT22;6291;48.924;12.204;2022-12-18T10:17:28;-2.40;99.90
12452;DHT22;6291;48.924;12.204;2022-12-18T10:22:47;-2.40;99.90
12452;DHT22;6291;48.924;12.204;2022-12-18T10:27:56;-2.70;99.90
12452;DHT22;6291;48.924;12.204;2022-12-18T10:33:01;-2.70;99.90
12452;DHT22;6291;48.924;12.204;2022-12-18T10:38:20;-2.70;99.90
12452;DHT22;6291;48.924;12.204;2022-12-18T10:43:26;-2.90;99.90
12452;DHT22;6291;48.924;12.204;2022-12-18T10:48:31;-2.80;99.90
12452;DHT22;6291;48.924;12.204;2022-12-18T10:53:38;-2.60;99.90
12452;DHT22;6291;48.924;12.204;2022-12-18T10:58:55;-2.60;99.90
12452;DHT22;6291;48.924;12.204;2022-12-18T11:04:02;-2.10;99.90
12452;DHT22;6291;48.924;12.204;2022-12-18T11:09:20;-2.30;99.90
12452;DHT22;6291;48.924;12.204;2022-12-18T11:14:25;-2.40;99.90
12452;DHT22;6291;48.924;12.204;2022-12-18T11:19:33;-2.30;99.90
12452;DHT22;6291;48.924;12.204;2022-12-18T11:24:38;-2.20;99.90
12452;DHT22;6291;48.924;12.204;2022-12-18T11:29:42;-2.50;99.90
12452;DHT22;6291;48.924;12.204;2022-12-18T11:34:51;-2.40;99.90
12452;DHT22;6291;48.924;12.204;2022-12-18T11:40:06;-2.30;99.90
12452;DHT22;6291;48.924;12.204;2022-12-18T11:45:27;-2.30;99.90
12452;DHT22;6291;48.924;12.204;2022-12-18T11:50:41;-2.10;99.90
12452;DHT22;6291;48.924;12.204;2022-12-18T11:55:58;-2.10;99.90
12452;DHT22;6291;48.924;12.204;2022-12-18T12:01:13;-2.20;99.90
12452;DHT22;6291;48.924;12.204;2022-12-18T12:06:23;-2.10;99.90
12452;DHT22;6291;48.924;12.204;2022-12-18T12:11:39;-1.80;99.90
12452;DHT22;6291;48.924;12.204;2022-12-18T12:16:51;-1.90;99.90
12452;DHT22;6291;48.924;12.204;2022-12-18T12:22:03;-1.90;99.90
12452;DHT22;6291;48.924;12.204;2022-12-18T12:27:16;-2.00;99.90
12452;DHT22;6291;48.924;12.204;2022-12-18T12:37:56;-2.10;99.90
12452;DHT22;6291;48.924;12.204;2022-12-18T12:43:11;-2.00;99.90
12452;DHT22;6291;48.924;12.204;2022-12-18T12:48:27;-1.90;99.90
12452;DHT22;6291;48.924;12.204;2022-12-18T12:53:36;-2.10;99.90
12452;DHT22;6291;48.924;12.204;2022-12-18T12:58:49;-2.10;99.90
12452;DHT22;6291;48.924;12.204;2022-12-18T13:04:04;-2.30;99.90
12452;DHT22;6291;48.924;12.204;2022-12-18T13:09:11;-2.30;99.90
12452;DHT22;6291;48.924;12.204;2022-12-18T13:14:23;-2.50;99.90
12452;DHT22;6291;48.924;12.204;2022-12-18T13:19:27;-2.60;99.90
12452;DHT22;6291;48.924;12.204;2022-12-18T13:24:31;-2.40;99.90
12452;DHT22;6291;48.924;12.204;2022-12-18T13:29:43;-2.40;99.90
12452;DHT22;6291;48.924;12.204;2022-12-18T13:34:48;-2.50;99.90
12452;DHT22;6291;48.924;12.204;2022-12-18T13:39:52;-2.40;99.90
12452;DHT22;6291;48.924;12.204;2022-12-18T13:44:58;-2.40;99.90
12452;DHT22;6291;48.924;12.204;2022-12-18T13:50:03;-2.30;99.90
12452;DHT22;6291;48.924;12.204;2022-12-18T13:55:17;-2.50;99.90
12452;DHT22;6291;48.924;12.204;2022-12-18T14:00:28;-2.50;99.90
12452;DHT22;6291;48.924;12.204;2022-12-18T14:05:33;-2.50;99.90
12452;DHT22;6291;48.924;12.204;2022-12-18T14:10:40;-2.60;99.90
12452;DHT22;6291;48.924;12.204;2022-12-18T14:15:52;-2.70;99.90
12452;DHT22;6291;48.924;12.204;2022-12-18T14:20:59;-2.80;99.90
12452;DHT22;6291;48.924;12.204;2022-12-18T14:26:20;-3.10;99.90
12452;DHT22;6291;48.924;12.204;2022-12-18T14:31:27;-3.50;99.90
12452;DHT22;6291;48.924;12.204;2022-12-18T14:36:30;-3.60;99.90
12452;DHT22;6291;48.924;12.204;2022-12-18T14:41:34;-3.70;99.90
12452;DHT22;6291;48.924;12.204;2022-12-18T14:46:39;-3.00;99.90
12452;DHT22;6291;48.924;12.204;2022-12-18T14:51:48;-4.10;99.90
12452;DHT22;6291;48.924;12.204;2022-12-18T14:56:57;-4.20;99.90
12452;DHT22;6291;48.924;12.204;2022-12-18T15:02:10;-3.60;99.90
12452;DHT22;6291;48.924;12.204;2022-12-18T15:07:18;-4.60;99.90
12452;DHT22;6291;48.924;12.204;2022-12-18T15:12:33;-4.70;99.90
12452;DHT22;6291;48.924;12.204;2022-12-18T15:17:38;-3.70;99.90
12452;DHT22;6291;48.924;12.204;2022-12-18T15:22:41;-4.00;99.90
12452;DHT22;6291;48.924;12.204;2022-12-18T15:27:46;-5.10;99.90
12452;DHT22;6291;48.924;12.204;2022-12-18T15:32:52;-5.10;99.90
12452;DHT22;6291;48.924;12.204;2022-12-18T15:37:56;-4.80;99.90
12452;DHT22;6291;48.924;12.204;2022-12-18T15:42:59;-5.40;99.90
12452;DHT22;6291;48.924;12.204;2022-12-18T15:48:22;-4.00;99.90
12452;DHT22;6291;48.924;12.204;2022-12-18T15:53:29;-5.30;99.90
12452;DHT22;6291;48.924;12.204;2022-12-18T15:58:33;-5.30;99.90
12452;DHT22;6291;48.924;12.204;2022-12-18T16:03:38;-5.50;99.90
12452;DHT22;6291;48.924;12.204;2022-12-18T16:08:42;-7.90;1.00
12452;DHT22;6291;48.924;12.204;2022-12-18T16:13:45;-4.80;1.00
12452;DHT22;6291;48.924;12.204;2022-12-18T16:18:50;-3.00;1.00
12452;DHT22;6291;48.924;12.204;2022-12-18T16:23:53;-6.00;99.90
12452;DHT22;6291;48.924;12.204;2022-12-18T16:28:57;-6.00;99.90
12452;DHT22;6291;48.924;12.204;2022-12-18T16:34:19;-4.50;99.90
12452;DHT22;6291;48.924;12.204;2022-12-18T16:39:26;-5.90;1.00
12452;DHT22;6291;48.924;12.204;2022-12-18T16:44:30;-5.70;1.00
12452;DHT22;6291;48.924;12.204;2022-12-18T16:49:36;-5.60;1.00
12452;DHT22;6291;48.924;12.204;2022-12-18T16:54:40;-5.50;1.00
12452;DHT22;6291;48.924;12.204;2022-12-18T16:59:43;-6.00;1.00
12452;DHT22;6291;48.924;12.204;2022-12-18T17:04:48;-5.80;1.00
12452;DHT22;6291;48.924;12.204;2022-12-18T17:09:52;-6.30;1.00
12452;DHT22;6291;48.924;12.204;2022-12-18T17:14:55;-6.30;12.90
12452;DHT22;6291;48.924;12.204;2022-12-18T17:20:01;-5.80;99.90
12452;DHT22;6291;48.924;12.204;2022-12-18T17:25:06;-6.50;1.00
12452;DHT22;6291;48.924;12.204;2022-12-18T17:30:11;-6.50;1.00
12452;DHT22;6291;48.924;12.204;2022-12-18T17:35:16;-6.50;99.90
12452;DHT22;6291;48.924;12.204;2022-12-18T17:40:19;-6.60;1.00
12452;DHT22;6291;48.924;12.204;2022-12-18T17:45:23;-6.60;1.00
12452;DHT22;6291;48.924;12.204;2022-12-18T17:50:27;-5.10;99.90
12452;DHT22;6291;48.924;12.204;2022-12-18T17:55:31;-6.70;7.70
12452;DHT22;6291;48.924;12.204;2022-12-18T18:00:34;-6.70;1.00
12452;DHT22;6291;48.924;12.204;2022-12-18T18:05:39;-6.70;99.90
12452;DHT22;6291;48.924;12.204;2022-12-18T18:10:42;-5.70;1.00
12452;DHT22;6291;48.924;12.204;2022-12-18T18:15:54;-6.70;1.00
12452;DHT22;6291;48.924;12.204;2022-12-18T18:21:02;-6.50;12.40
12452;DHT22;6291;48.924;12.204;2022-12-18T18:26:07;-6.10;39.50
12452;DHT22;6291;48.924;12.204;2022-12-18T18:31:11;-6.80;99.90
12452;DHT22;6291;48.924;12.204;2022-12-18T18:36:16;-5.90;99.90
12452;DHT22;6291;48.924;12.204;2022-12-18T18:41:20;-6.80;99.90
12452;DHT22;6291;48.924;12.204;2022-12-18T18:46:25;-6.90;99.90
12452;DHT22;6291;48.924;12.204;2022-12-18T18:51:30;-6.90;99.90
12452;DHT22;6291;48.924;12.204;2022-12-18T18:56:36;-6.80;99.90
12452;DHT22;6291;48.924;12.204;2022-12-18T19:01:59;-6.90;46.20
12452;DHT22;6291;48.924;12.204;2022-12-18T19:07:07;-6.90;9.90
12452;DHT22;6291;48.924;12.204;2022-12-18T19:12:11;-7.10;1.00
12452;DHT22;6291;48.924;12.204;2022-12-18T19:17:31;-7.10;1.00
12452;DHT22;6291;48.924;12.204;2022-12-18T19:22:37;-7.10;1.00
12452;DHT22;6291;48.924;12.204;2022-12-18T19:27:40;-6.50;1.00
12452;DHT22;6291;48.924;12.204;2022-12-18T19:32:44;-7.00;1.00
12452;DHT22;6291;48.924;12.204;2022-12-18T19:37:49;-6.80;1.00
12452;DHT22;6291;48.924;12.204;2022-12-18T19:42:52;-6.80;1.00
12452;DHT22;6291;48.924;12.204;2022-12-18T19:47:55;-6.70;2.80
12452;DHT22;6291;48.924;12.204;2022-12-18T19:53:06;-6.50;99.90
12452;DHT22;6291;48.924;12.204;2022-12-18T19:58:11;-6.20;1.00
12452;DHT22;6291;48.924;12.204;2022-12-18T20:03:14;-5.10;99.90
12452;DHT22;6291;48.924;12.204;2022-12-18T20:08:35;-5.70;1.00
12452;DHT22;6291;48.924;12.204;2022-12-18T20:13:38;-4.60;99.90
12452;DHT22;6291;48.924;12.204;2022-12-18T20:18:42;-3.60;1.00
12452;DHT22;6291;48.924;12.204;2022-12-18T20:23:47;-4.40;30.90
12452;DHT22;6291;48.924;12.204;2022-12-18T20:28:51;-5.10;75.70
12452;DHT22;6291;48.924;12.204;2022-12-18T20:33:55;-4.70;1.00
12452;DHT22;6291;48.924;12.204;2022-12-18T20:39:06;-5.00;99.90
12452;DHT22;6291;48.924;12.204;2022-12-18T20:44:14;-5.00;1.00
12452;DHT22;6291;48.924;12.204;2022-12-18T20:49:25;-4.00;1.00
12452;DHT22;6291;48.924;12.204;2022-12-18T20:54:31;-3.90;1.00
12452;DHT22;6291;48.924;12.204;2022-12-18T20:59:34;-4.70;43.60
12452;DHT22;6291;48.924;12.204;2022-12-18T21:04:37;-4.60;99.90
12452;DHT22;6291;48.924;12.204;2022-12-18T21:09:42;-4.50;1.00
12452;DHT22;6291;48.924;12.204;2022-12-18T21:14:45;-4.60;1.00
12452;DHT22;6291;48.924;12.204;2022-12-18T21:19:51;-4.40;1.00
12452;DHT22;6291;48.924;12.204;2022-12-18T21:24:57;-4.40;1.00
12452;DHT22;6291;48.924;12.204;2022-12-18T21:30:01;-4.20;99.90
12452;DHT22;6291;48.924;12.204;2022-12-18T21:35:05;-4.20;1.00
12452;DHT22;6291;48.924;12.204;2022-12-18T21:40:11;-7.60;1.00
12452;DHT22;6291;48.924;12.204;2022-12-18T21:45:15;-4.10;99.90
12452;DHT22;6291;48.924;12.204;2022-12-18T21:50:18;-4.00;99.90
12452;DHT22;6291;48.924;12.204;2022-12-18T21:55:23;-4.00;1.00
12452;DHT22;6291;48.924;12.204;2022-12-18T22:00:27;-4.00;1.00
12452;DHT22;6291;48.924;12.204;2022-12-18T22:05:30;-4.00;1.00
12452;DHT22;6291;48.924;12.204;2022-12-18T22:10:35;-4.00;99.90
12452;DHT22;6291;48.924;12.204;2022-12-18T22:15:38;-4.10;99.90
12452;DHT22;6291;48.924;12.204;2022-12-18T22:20:42;-3.90;19.40
12452;DHT22;6291;48.924;12.204;2022-12-18T22:25:47;-4.00;99.90
12452;DHT22;6291;48.924;12.204;2022-12-18T22:30:50;-3.80;1.00
12452;DHT22;6291;48.924;12.204;2022-12-18T22:36:04;-3.90;99.90
12452;DHT22;6291;48.924;12.204;2022-12-18T22:41:09;-3.70;99.90
12452;DHT22;6291;48.924;12.204;2022-12-18T22:46:14;-3.70;1.00
12452;DHT22;6291;48.924;12.204;2022-12-18T22:51:18;-3.90;99.90
12452;DHT22;6291;48.924;12.204;2022-12-18T22:56:23;-3.90;1.00
12452;DHT22;6291;48.924;12.204;2022-12-18T23:01:28;-3.90;1.00
12452;DHT22;6291;48.924;12.204;2022-12-18T23:06:33;-3.90;1.00
12452;DHT22;6291;48.924;12.204;2022-12-18T23:11:40;-3.90;1.00
12452;DHT22;6291;48.924;12.204;2022-12-18T23:16:44;-3.90;1.00
12452;DHT22;6291;48.924;12.204;2022-12-18T23:21:50;-3.90;1.00
12452;DHT22;6291;48.924;12.204;2022-12-18T23:26:57;-3.90;1.00
12452;DHT22;6291;48.924;12.204;2022-12-18T23:32:00;-4.00;54.30
12452;DHT22;6291;48.924;12.204;2022-12-18T23:37:04;-4.00;99.90
12452;DHT22;6291;48.924;12.204;2022-12-18T23:42:08;-3.80;88.40
12452;DHT22;6291;48.924;12.204;2022-12-18T23:47:14;-3.90;42.80
12452;DHT22;6291;48.924;12.204;2022-12-18T23:52:17;-3.90;1.00
12452;DHT22;6291;48.924;12.204;2022-12-18T23:57:22;-1.20;99.90
